Aviation Digital Data Service (ADDS)

Output produced by METARs form (1533 UTC 27 April 2015)
found at http://aviationweather.gov/adds/metars/
 
KMBS 271126Z 2712/2812 03008KT P6SM OVC025 
     FM271800 04010KT P6SM BKN035 
     FM280100 02005KT P6SM SCT045 BKN060